Data for 10/09/2014

Time Sea-Level Adjusted Pressure Absolute Pressure Temperature Relative Humidity Dew Point   
(mb) (inHg) (mb) (inHg) (C) (F) (%) (C) (F)
00:05 1019 30.09 848 25.04 13 55.4 53 3.6 38.5
00:10 1019 30.09 848 25.04 12.9 55.2 53 3.7 38.6
00:15 1019 30.09 848 25.04 12.8 55.1 53 3.7 38.6
00:20 1019 30.09 848 25.04 12.8 55 54 3.7 38.6
00:25 1019 30.09 848 25.04 12.7 54.9 54 3.6 38.5
00:30 1019 30.09 848 25.04 12.7 54.9 54 3.6 38.5
00:35 1019 30.09 848 25.04 12.7 54.8 54 3.7 38.6
00:40 1019 30.09 848 25.04 12.6 54.7 54 3.5 38.4
00:45 1019 30.09 848 25.04 12.7 54.8 53 3.5 38.3
00:50 1019 30.09 848 25.04 12.7 54.8 54 3.6 38.4
00:55 1019 30.09 848 25.04 12.6 54.7 54 3.6 38.5
01:00 1019 30.09 848 25.04 12.5 54.5 54 3.6 38.4
01:05 1019 30.09 848 25.04 12.5 54.5 54 3.5 38.3
01:10 1019 30.09 848 25.04 12.6 54.6 54 3.5 38.4
01:15 1019 30.09 848 25.04 12.5 54.6 54 3.5 38.3
01:20 1019 30.09 848 25.04 12.5 54.6 54 3.5 38.3
01:25 1019 30.09 848 25.04 12.5 54.5 54 3.6 38.4
01:30 1019 30.09 849 25.07 12.4 54.4 55 3.6 38.4
01:35 1019 30.09 848 25.04 12.4 54.3 54 3.5 38.3
01:40 1019 30.09 848 25.04 12.3 54.2 55 3.6 38.5
01:45 1019 30.09 848 25.04 12.2 53.9 55 3.5 38.4
01:50 1019 30.09 848 25.04 12.2 54 55 3.5 38.3
01:55 1019 30.09 848 25.04 12.2 54 55 3.4 38.2
02:00 1019 30.09 848 25.04 12.4 54.3 54 3.5 38.2
02:05 1019 30.09 848 25.04 12.4 54.4 54 3.5 38.2
02:10 1019 30.09 848 25.04 12.4 54.4 54 3.5 38.3
02:15 1019 30.09 848 25.04 12.5 54.4 54 3.4 38.2
02:20 1019 30.09 848 25.04 12.4 54.4 55 3.6 38.4
02:25 1019 30.09 848 25.04 12.4 54.3 54 3.5 38.3
02:30 1019 30.09 848 25.04 12.4 54.3 54 3.5 38.2
02:35 1019 30.09 848 25.04 12.3 54.2 55 3.5 38.4
02:40 1019 30.09 848 25.04 12.3 54.1 55 3.5 38.4
02:45 1019 30.09 848 25.04 12.3 54.2 54 3.5 38.2
02:50 1019 30.09 848 25.04 12.3 54.2 55 3.6 38.4
02:55 1019 30.09 848 25.04 12.3 54.1 55 3.6 38.4
03:00 1019 30.09 848 25.04 12.2 54 55 3.6 38.4
03:05 1019 30.09 848 25.04 12.2 53.9 55 3.6 38.4
03:10 1019 30.09 848 25.04 12.2 53.9 55 3.6 38.4
03:15 1019 30.09 848 25.04 12.2 53.9 55 3.6 38.4
03:20 1019 30.09 848 25.04 12.1 53.8 56 3.6 38.4
03:25 1019 30.09 848 25.04 12 53.6 56 3.6 38.5
03:30 1019 30.09 848 25.04 12 53.5 56 3.6 38.5
03:35 1019 30.09 848 25.04 11.9 53.4 56 3.5 38.4
03:40 1019 30.09 848 25.04 11.9 53.4 56 3.6 38.5
03:45 1019 30.09 848 25.04 11.9 53.4 56 3.5 38.4
03:50 1019 30.09 848 25.04 11.9 53.3 57 3.6 38.5
03:55 1019 30.09 848 25.04 11.8 53.2 57 3.7 38.6
04:00 1019 30.09 848 25.04 11.7 53.1 57 3.6 38.5
04:05 1019 30.09 849 25.07 11.7 53.1 58 3.7 38.7
04:10 1019 30.09 848 25.04 11.8 53.2 57 3.6 38.5
04:15 1019 30.09 848 25.04 11.8 53.2 57 3.6 38.5
04:20 1019 30.09 848 25.04 11.8 53.2 57 3.6 38.5
04:25 1019 30.09 848 25.04 11.7 53.1 58 3.7 38.7
04:30 1019 30.09 848 25.04 11.6 52.9 58 3.7 38.6
04:35 1019 30.09 849 25.07 11.5 52.7 58 3.7 38.6
04:40 1019 30.09 849 25.07 11.5 52.7 58 3.7 38.6
04:45 1019 30.09 848 25.04 11.5 52.7 58 3.6 38.5
04:50 1019 30.09 849 25.07 11.6 52.8 58 3.6 38.5
04:55 1019 30.09 849 25.07 11.6 52.8 58 3.7 38.6
05:00 1019 30.09 849 25.07 11.5 52.7 58 3.6 38.5
05:05 1019 30.09 849 25.07 11.6 52.8 58 3.7 38.7
05:10 1019 30.09 848 25.04 11.5 52.7 58 3.7 38.7
05:15 1019 30.09 848 25.04 11.5 52.7 59 3.8 38.8
05:20 1019 30.09 848 25.04 11.4 52.6 59 3.7 38.7
05:25 1019 30.09 848 25.04 11.5 52.7 59 3.7 38.7
05:30 1019 30.09 849 25.07 11.5 52.6 59 3.8 38.8
05:35 1019 30.09 849 25.07 11.4 52.5 59 3.8 38.9
05:40 1019 30.09 849 25.07 11.3 52.4 59 3.8 38.8
05:45 1019 30.09 849 25.07 11.3 52.3 60 3.8 38.8
05:50 1019 30.09 849 25.07 11.3 52.3 60 3.8 38.8
05:55 1019 30.09 849 25.07 11.3 52.3 60 3.8 38.9
06:00 1019 30.09 849 25.07 11.3 52.4 60 3.9 38.9
06:05 1019 30.09 849 25.07 11.3 52.3 60 3.9 39.1
06:10 1019 30.09 849 25.07 11.2 52.2 61 4 39.1
06:15 1019 30.09 849 25.07 11.1 52 61 4 39.2
06:20 1019 30.09 849 25.07 11 51.8 62 4 39.3
06:25 1019 30.09 849 25.07 11 51.7 62 4.1 39.4
06:30 1020 30.12 849 25.07 11 51.8 62 4.1 39.4
06:35 1020 30.12 849 25.07 10.9 51.7 62 4.1 39.3
06:40 1019 30.09 849 25.07 11 51.8 62 4.1 39.4
06:45 1020 30.12 849 25.07 11.1 51.9 62 4.1 39.3
06:50 1020 30.12 849 25.07 11 51.7 63 4.1 39.5
06:55 1020 30.12 849 25.07 10.9 51.6 63 4.1 39.4
07:00 1020 30.12 849 25.07 10.8 51.4 63 4 39.3
07:05 1020 30.12 849 25.07 10.8 51.4 63 4 39.2
07:10 1020 30.12 849 25.07 10.8 51.5 63 4 39.2
07:15 1020 30.12 849 25.07 10.9 51.5 63 4.1 39.4
07:20 1020 30.12 849 25.07 10.8 51.4 63 4.1 39.3
07:25 1020 30.12 849 25.07 10.8 51.4 63 4 39.2
07:30 1020 30.12 849 25.07 11 51.7 62 4.1 39.4
07:35 1020 30.12 849 25.07 11.1 51.9 62 4.2 39.6
07:40 1020 30.12 849 25.07 11.1 52 62 4.1 39.4
07:45 1020 30.12 849 25.07 11.3 52.3 62 4.2 39.5
07:50 1020 30.12 849 25.07 11.4 52.4 62 4.3 39.7
07:55 1020 30.12 849 25.07 11.4 52.6 61 4.2 39.6
08:00 1020 30.12 849 25.07 11.6 52.8 60 4.2 39.5
08:05 1020 30.12 849 25.07 11.7 53 60 4.3 39.7
08:10 1020 30.12 849 25.07 11.7 53 60 4.3 39.8
08:15 1020 30.12 849 25.07 11.7 53.1 60 4.3 39.8
08:20 1020 30.12 849 25.07 11.8 53.2 60 4.4 39.9
08:25 1020 30.12 849 25.07 11.7 53.1 61 4.5 40.1
08:30 1020 30.12 849 25.07 11.7 53.1 61 4.4 39.9
08:35 1020 30.12 849 25.07 11.7 53.1 61 4.6 40.3
08:40 1020 30.12 849 25.07 11.6 52.9 62 4.6 40.3
08:45 1020 30.12 849 25.07 11.6 52.8 62 4.6 40.3
08:50 1020 30.12 849 25.07 11.5 52.7 62 4.5 40.1
08:55 1020 30.12 849 25.07 11.5 52.7 62 4.4 40
09:00 1020 30.12 849 25.07 11.5 52.8 61 4.4 39.9
09:05 1020 30.12 849 25.07 11.5 52.7 61 4.3 39.8
09:10 1020 30.12 849 25.07 11.5 52.8 61 4.4 39.9
09:15 1020 30.12 850 25.1 11.7 53 61 4.4 39.8
09:20 1020 30.12 850 25.1 12 53.6 60 4.5 40
09:25 1021 30.15 850 25.1 11.4 52.4 63 4.5 40.1
09:30 1021 30.15 850 25.1 11.1 52 62 4.2 39.6
09:35 1021 30.15 850 25.1 11.2 52.1 63 4.3 39.8
09:40 1020 30.12 850 25.1 11 51.9 63 4.3 39.7
09:45 1021 30.15 850 25.1 11.1 51.9 63 4.4 39.8
09:50 1021 30.15 850 25.1 11.1 52.1 61 4 39.1
09:55 1021 30.15 850 25.1 11.7 53 59 4 39.2
10:00 1021 30.15 850 25.1 11.7 53 60 4.2 39.6
10:05 1021 30.15 850 25.1 11.9 53.4 59 4.2 39.5
10:10 1021 30.15 850 25.1 12 53.6 58 4 39.3
10:15 1021 30.15 850 25.1 12.5 54.6 57 4.4 40
10:20 1021 30.15 850 25.1 12.6 54.7 58 4.7 40.5
10:25 1021 30.15 850 25.1 12.6 54.6 57 4.3 39.7
10:30 1021 30.15 850 25.1 12.6 54.8 58 4.6 40.3
10:35 1020 30.12 850 25.1 12.8 55.1 56 4.3 39.7
10:40 1020 30.12 850 25.1 12.9 55.2 57 4.6 40.2
10:45 1020 30.12 850 25.1 12.8 55.1 56 4.4 39.9
10:50 1020 30.12 850 25.1 13.1 55.6 56 4.7 40.4
10:55 1020 30.12 850 25.1 13 55.3 56 4.5 40.1
11:00 1020 30.12 850 25.1 13.1 55.6 56 4.6 40.4
11:05 1020 30.12 850 25.1 13.2 55.7 56 4.7 40.4
11:10 1020 30.12 849 25.07 13.4 56.1 55 4.7 40.4
11:15 1020 30.12 850 25.1 13.6 56.5 54 4.6 40.3
11:20 1020 30.12 850 25.1 13.8 56.9 54 4.6 40.3
11:25 1020 30.12 849 25.07 13.8 56.8 54 4.6 40.3
11:30 1020 30.12 849 25.07 13.8 56.9 54 4.6 40.4
11:35 1020 30.12 850 25.1 14 57.3 52 4.5 40.1
11:40 1020 30.12 849 25.07 14 57.1 53 4.6 40.2
11:45 1020 30.12 850 25.1 14.1 57.3 52 4.5 40.2
11:50 1020 30.12 850 25.1 14.2 57.5 53 4.7 40.4
11:55 1020 30.12 850 25.1 14.1 57.3 52 4.5 40.2
12:00 1020 30.12 850 25.1 14.2 57.5 51 4.3 39.7
12:05 1020 30.12 849 25.07 14.2 57.5 52 4.4 40
12:10 1020 30.12 849 25.07 14.2 57.5 52 4.4 40
12:15 1020 30.12 849 25.07 14.4 57.9 51 4.4 39.8
12:20 1020 30.12 849 25.07 14.6 58.4 49 4.1 39.3
12:25 1020 30.12 849 25.07 14.7 58.5 49 4.3 39.8
12:30 1020 30.12 849 25.07 14.5 58 51 4.5 40
12:35 1020 30.12 849 25.07 14.4 58 50 4.1 39.4
12:40 1020 30.12 849 25.07 14.7 58.5 51 4.7 40.4
12:45 1020 30.12 849 25.07 14.6 58.2 51 4.7 40.4
12:50 1020 30.12 849 25.07 14.6 58.3 50 4.4 39.9
12:55 1020 30.12 849 25.07 15 59.1 50 4.8 40.6
13:00 1020 30.12 849 25.07 15 59 49 4.4 40
13:05 1020 30.12 849 25.07 15 59 50 4.8 40.6
13:10 1020 30.12 849 25.07 14.7 58.4 51 4.8 40.6
13:15 1020 30.12 849 25.07 14.7 58.4 51 4.7 40.4
13:20 1020 30.12 849 25.07 14.7 58.5 50 4.4 39.9
13:25 1020 30.12 849 25.07 14.8 58.7 50 4.5 40.1
13:30 1020 30.12 849 25.07 14.8 58.6 50 4.5 40.1
13:35 1020 30.12 849 25.07 15 58.9 50 4.7 40.4
13:40 1020 30.12 849 25.07 14.9 58.7 50 4.7 40.5
13:45 1020 30.12 849 25.07 15.2 59.3 49 4.6 40.3
13:50 1020 30.12 849 25.07 15.2 59.4 49 4.8 40.6
13:55 1020 30.12 849 25.07 15.2 59.4 49 4.6 40.3
14:00 1019 30.09 849 25.07 15.2 59.3 48 4.4 40
14:05 1019 30.09 849 25.07 15.3 59.5 48 4.5 40.2
14:10 1019 30.09 849 25.07 15.3 59.5 49 4.7 40.4
14:15 1019 30.09 849 25.07 15.1 59.1 49 4.5 40.2
14:20 1019 30.09 849 25.07 14.9 58.8 50 4.5 40.2
14:25 1019 30.09 849 25.07 15 58.9 49 4.3 39.7
14:30 1019 30.09 849 25.07 14.9 58.8 49 4.4 40
14:35 1020 30.12 849 25.07 14.9 58.8 49 4.3 39.8
14:40 1019 30.09 849 25.07 15.2 59.3 48 4.5 40
14:45 1020 30.12 849 25.07 15.2 59.4 48 4.2 39.6
14:50 1020 30.12 849 25.07 15.2 59.3 48 4.2 39.6
14:55 1020 30.12 849 25.07 15.2 59.3 48 4.2 39.6
15:00 1020 30.12 849 25.07 15.1 59.1 48 4.2 39.5
15:05 1020 30.12 849 25.07 15 59 47 4 39.2
15:10 1020 30.12 849 25.07 15.1 59.2 47 4.1 39.4
15:15 1020 30.12 849 25.07 15 59.1 48 4.3 39.7
15:20 1020 30.12 849 25.07 14.9 58.8 48 4.2 39.5
15:25 1020 30.12 849 25.07 14.8 58.6 48 4 39.3
15:30 1020 30.12 849 25.07 14.6 58.3 50 4.4 39.9
15:35 1020 30.12 849 25.07 14.8 58.6 49 4.1 39.4
15:40 1020 30.12 849 25.07 14.7 58.5 49 4.3 39.7
15:45 1020 30.12 849 25.07 14.5 58.1 50 4.2 39.6
15:50 1020 30.12 849 25.07 14.4 57.9 50 4.3 39.7
15:55 1020 30.12 849 25.07 14.4 58 50 4.3 39.7
16:00 1020 30.12 849 25.07 14.4 57.8 51 4.3 39.8
16:05 1020 30.12 849 25.07 14.2 57.5 51 4.2 39.6
16:10 1020 30.12 849 25.07 14 57.1 52 4.2 39.6
16:15 1020 30.12 849 25.07 13.9 57.1 51 4.1 39.4
16:20 1020 30.12 849 25.07 14.1 57.3 51 4.1 39.4
16:25 1020 30.12 849 25.07 14.1 57.4 51 4.2 39.5
16:30 1020 30.12 849 25.07 14.2 57.5 50 4.1 39.4
16:35 1020 30.12 849 25.07 14.2 57.6 50 4.2 39.5
16:40 1020 30.12 849 25.07 13.8 56.9 52 4.2 39.5
16:45 1020 30.12 849 25.07 13.5 56.3 53 4.1 39.3
16:50 1020 30.12 849 25.07 13.4 56 53 4.1 39.3
16:55 1020 30.12 849 25.07 13.2 55.8 53 4 39.2
17:00 1020 30.12 849 25.07 13.1 55.6 54 3.9 39.1
17:05 1020 30.12 849 25.07 13.1 55.5 53 3.9 39
17:10 1020 30.12 849 25.07 13 55.3 54 4 39.1
17:15 1020 30.12 849 25.07 12.8 55 54 3.9 39
17:20 1020 30.12 849 25.07 12.7 54.9 55 3.9 39.1
17:25 1020 30.12 849 25.07 12.6 54.6 55 4 39.1
17:30 1020 30.12 849 25.07 12.5 54.4 56 3.9 39.1
17:35 1020 30.12 849 25.07 12.4 54.3 56 3.9 39
17:40 1020 30.12 849 25.07 12.4 54.3 56 3.9 38.9
17:45 1020 30.12 849 25.07 12.3 54.1 56 3.9 39
17:50 1020 30.12 849 25.07 12.2 54 56 3.9 39
17:55 1020 30.12 849 25.07 12.1 53.8 57 3.9 38.9
18:00 1020 30.12 849 25.07 12.1 53.8 57 3.9 39
18:05 1020 30.12 850 25.1 11.9 53.4 58 4 39.2
18:10 1020 30.12 850 25.1 11.7 53 59 3.9 39
18:15 1020 30.12 850 25.1 11.6 52.9 58 3.8 38.9
18:20 1021 30.15 850 25.1 11.6 52.9 59 3.8 38.9
18:25 1020 30.12 850 25.1 11.5 52.7 59 3.9 38.9
18:30 1021 30.15 850 25.1 11.5 52.6 59 3.7 38.6
18:35 1021 30.15 850 25.1 11.5 52.7 59 3.7 38.7
18:40 1021 30.15 850 25.1 11.4 52.6 59 3.8 38.8
18:45 1021 30.15 850 25.1 11.3 52.4 59 3.7 38.7
18:50 1021 30.15 850 25.1 11.3 52.3 59 3.7 38.6
18:55 1021 30.15 850 25.1 11.2 52.1 60 3.7 38.6
19:00 1021 30.15 850 25.1 11.1 52 60 3.6 38.5
19:05 1021 30.15 850 25.1 11.1 52 60 3.6 38.5
19:10 1021 30.15 850 25.1 11.1 51.9 60 3.6 38.5
19:15 1021 30.15 850 25.1 11 51.9 60 3.6 38.4
19:20 1021 30.15 850 25.1 11 51.8 60 3.6 38.5
19:25 1021 30.15 850 25.1 11 51.8 60 3.5 38.3
19:30 1021 30.15 850 25.1 11 51.8 60 3.5 38.3
19:35 1021 30.15 850 25.1 11 51.7 60 3.5 38.3
19:40 1021 30.15 850 25.1 10.9 51.5 60 3.5 38.3
19:45 1021 30.15 850 25.1 10.8 51.4 60 3.4 38.2
19:50 1021 30.15 850 25.1 10.7 51.2 61 3.5 38.3
19:55 1021 30.15 851 25.13 10.6 51.1 61 3.5 38.2
20:00 1021 30.15 850 25.1 10.5 50.9 62 3.5 38.3
20:05 1021 30.15 850 25.1 10.4 50.8 62 3.5 38.3
20:10 1021 30.15 850 25.1 10.3 50.6 62 3.4 38.1
20:15 1021 30.15 850 25.1 10.2 50.4 62 3.4 38.1
20:20 1021 30.15 851 25.13 10.2 50.3 62 3.4 38.1
20:25 1021 30.15 850 25.1 10.1 50.3 62 3.3 37.9
20:30 1021 30.15 850 25.1 10.1 50.1 62 3.2 37.7
20:35 1021 30.15 850 25.1 10.1 50.1 62 3.2 37.7
20:40 1021 30.15 850 25.1 10 50.1 62 3.1 37.5
20:45 1021 30.15 850 25.1 10 50 62 3 37.5
20:50 1021 30.15 850 25.1 10 49.9 62 3 37.4
20:55 1021 30.15 850 25.1 9.9 49.9 62 3 37.4
21:00 1021 30.15 850 25.1 9.9 49.8 62 2.9 37.3
21:05 1021 30.15 850 25.1 9.8 49.7 62 2.9 37.3
21:10 1021 30.15 850 25.1 9.8 49.6 62 3 37.3
21:15 1021 30.15 850 25.1 9.7 49.5 63 3 37.5
21:20 1021 30.15 850 25.1 9.6 49.3 64 3.2 37.7
21:25 1021 30.15 850 25.1 9.5 49.1 64 3.2 37.7
21:30 1021 30.15 850 25.1 9.4 48.9 65 3.3 37.9
21:35 1021 30.15 850 25.1 9.3 48.7 66 3.2 37.8
21:40 1021 30.15 850 25.1 9.2 48.5 66 3.3 37.9
21:45 1021 30.15 850 25.1 9.1 48.4 66 3.2 37.8
21:50 1021 30.15 850 25.1 9.1 48.3 66 3.1 37.6
21:55 1021 30.15 850 25.1 9 48.3 66 3.1 37.6
22:00 1021 30.15 850 25.1 9 48.2 66 3 37.5
22:05 1021 30.15 850 25.1 8.9 48.1 67 3.1 37.6
22:10 1021 30.15 850 25.1 8.8 47.9 67 3.1 37.6
22:15 1021 30.15 850 25.1 8.8 47.8 67 3 37.4
22:20 1021 30.15 850 25.1 8.8 47.8 67 3.1 37.5
22:25 1021 30.15 850 25.1 8.7 47.6 68 3 37.5
22:30 1021 30.15 850 25.1 8.6 47.6 68 3 37.4
22:35 1021 30.15 850 25.1 8.6 47.4 68 3 37.5
22:40 1021 30.15 850 25.1 8.6 47.4 68 3.1 37.5
22:45 1021 30.15 850 25.1 8.5 47.3 68 3 37.4
22:50 1021 30.15 850 25.1 8.5 47.3 68 3 37.4
22:55 1021 30.15 850 25.1 8.5 47.3 68 3 37.4
23:00 1021 30.15 850 25.1 8.4 47.2 69 3 37.4
23:05 1021 30.15 850 25.1 8.4 47.1 69 3 37.3
23:10 1021 30.15 850 25.1 8.3 46.9 69 3 37.4
23:15 1021 30.15 850 25.1 8.2 46.7 69 2.9 37.3
23:20 1021 30.15 850 25.1 8.2 46.8 68 2.8 37
23:25 1021 30.15 850 25.1 8.3 46.9 68 2.9 37.1
23:30 1021 30.15 850 25.1 8.2 46.8 68 2.8 37
23:35 1021 30.15 850 25.1 8.3 46.9 68 2.8 37
23:40 1021 30.15 850 25.1 8.3 46.9 68 2.8 37
23:45 1021 30.15 850 25.1 8.3 46.9 68 2.8 37
23:50 1021 30.15 850 25.1 8.2 46.8 68 2.8 37
23:55 1021 30.15 850 25.1 8.2 46.8 69 2.8 37
24:00 1021 30.15 850 25.1 8.2 46.7 69 2.8 37